Time;durP1;ratioP1;P1;durP2;ratioP2;P2;SDS_P1;SDS_P2;PMS_P1;PMS_P2;Temp;Humidity;BMP_temperature;BMP_pressure;BME280_temperature;BME280_humidity;BME280_pressure;Samples;Min_cycle;Max_cycle;Signal;HPM_P1;HPM_P2
2022/06/23 00:01:10;;;;;;;;;;;;;;;19.24;40.10;100258.78;4981048;28;97900;-61
2022/06/23 00:04:03;;;;;;;;;;;;;;;19.17;39.98;100263.97;5009322;28;97637;-61
2022/06/23 00:07:25;;;;;;;;;;;;;;;19.05;40.41;100264.66;4986738;28;97686;-64
2022/06/23 00:10:39;;;;;;;;;;;;;;;18.97;40.49;100267.44;4978820;28;97465;-64
2022/06/23 00:13:32;;;;;;;;;;;;;;;18.89;40.42;100261.69;4959654;28;97509;-65
2022/06/23 00:16:53;;;;;;;;;;;;;;;18.85;40.69;100263.47;4968042;28;97517;-61
2022/06/23 00:19:45;;;;;;;;;;;;;;;18.77;40.75;100263.50;4990454;28;97524;-61
2022/06/23 00:22:39;;;;;;;;;;;;;;;18.67;40.93;100264.63;4992802;28;97628;-61
2022/06/23 00:25:56;;;;;;;;;;;;;;;18.60;40.99;100269.78;4997703;28;97739;-65
2022/06/23 00:29:10;;;;;;;;;;;;;;;18.55;41.21;100267.22;4981870;28;98885;-65
2022/06/23 00:32:04;;;;;;;;;;;;;;;18.48;41.26;100265.00;4985896;28;97439;-61
2022/06/23 00:35:09;;;;;;;;;;;;;;;18.44;41.24;100276.91;4991718;28;97992;-61
2022/06/23 00:38:03;;;;;;;;;;;;;;;18.39;41.17;100277.84;4958714;28;98274;-61
2022/06/23 00:40:56;;;;;;;;;;;;;;;18.35;41.52;100282.34;4963686;28;97420;-61
2022/06/23 00:43:50;;;;;;;;;;;;;;;18.31;41.58;100282.22;5011608;28;96853;-65
2022/06/23 00:46:46;;;;;;;;;;;;;;;18.27;41.59;100286.69;4997682;28;98183;-65
2022/06/23 00:49:40;;;;;;;;;;;;;;;18.22;41.70;100284.16;4996166;28;97414;-66
2022/06/23 00:52:43;;;;;;;;;;;;;;;18.18;41.73;100285.91;4996867;28;97681;-61
2022/06/23 00:55:58;;;;;;;;;;;;;;;18.12;41.94;100293.47;4978022;28;97350;-61
2022/06/23 00:59:00;;;;;;;;;;;;;;;18.03;42.01;100292.66;4979437;28;98849;-65
2022/06/23 01:02:23;;;;;;;;;;;;;;;17.97;42.08;100304.06;4986396;28;97433;-61
2022/06/23 01:05:53;;;;;;;;;;;;;;;17.94;42.20;100300.03;4998496;28;97644;-61
2022/06/23 01:09:24;;;;;;;;;;;;;;;17.90;42.44;100299.06;4993309;28;97664;-61
2022/06/23 01:12:51;;;;;;;;;;;;;;;17.87;42.42;100310.63;4985797;28;97553;-61
2022/06/23 01:15:58;;;;;;;;;;;;;;;17.86;42.53;100320.72;4994214;28;97473;-66
2022/06/23 01:19:05;;;;;;;;;;;;;;;17.83;42.61;100324.09;4989801;28;97729;-65
2022/06/23 01:22:09;;;;;;;;;;;;;;;17.80;42.93;100332.94;4990083;28;98402;-61
2022/06/23 01:28:27;;;;;;;;;;;;;;;17.68;43.05;100332.69;4977531;28;97705;-62
2022/06/23 01:31:44;;;;;;;;;;;;;;;17.62;43.27;100329.31;4989552;28;97246;-61
2022/06/23 01:34:57;;;;;;;;;;;;;;;17.56;43.32;100346.13;4976187;28;97804;-65
2022/06/23 01:37:51;;;;;;;;;;;;;;;17.48;43.33;100338.72;4962260;28;97405;-65
2022/06/23 01:40:48;;;;;;;;;;;;;;;17.44;43.28;100352.19;4992376;28;98419;-61
2022/06/23 01:43:43;;;;;;;;;;;;;;;17.36;43.50;100345.59;4978397;28;97258;-61
2022/06/23 01:46:55;;;;;;;;;;;;;;;17.29;43.62;100347.16;4976925;28;97556;-61
2022/06/23 01:50:19;;;;;;;;;;;;;;;17.22;43.62;100347.63;4977025;28;97564;-64
2022/06/23 01:53:21;;;;;;;;;;;;;;;17.17;43.75;100354.03;4976841;28;97357;-61
2022/06/23 01:56:41;;;;;;;;;;;;;;;17.13;43.80;100349.50;4955172;28;99421;-66
2022/06/23 02:00:03;;;;;;;;;;;;;;;17.06;43.77;100357.34;4958359;28;97689;-65
2022/06/23 02:03:30;;;;;;;;;;;;;;;16.99;44.05;100360.50;4983456;28;98442;-61
2022/06/23 02:06:23;;;;;;;;;;;;;;;16.90;43.97;100373.28;4997260;28;98119;-65
2022/06/23 02:09:20;;;;;;;;;;;;;;;16.83;44.05;100367.47;4997116;28;97108;-65
2022/06/23 02:12:13;;;;;;;;;;;;;;;16.74;44.28;100369.31;4997942;28;97622;-61
2022/06/23 02:15:08;;;;;;;;;;;;;;;16.67;44.37;100367.81;4956816;28;97407;-61
2022/06/23 02:18:18;;;;;;;;;;;;;;;16.60;44.27;100375.59;4968019;28;98650;-65
2022/06/23 02:21:48;;;;;;;;;;;;;;;16.55;44.48;100383.09;4986171;28;97523;-62
2022/06/23 02:25:28;;;;;;;;;;;;;;;16.47;44.36;100381.13;4956592;28;97566;-61
2022/06/23 02:28:39;;;;;;;;;;;;;;;16.40;44.76;100381.53;4955114;28;97792;-66
2022/06/23 02:31:52;;;;;;;;;;;;;;;16.34;44.95;100377.31;4984973;28;98191;-67
2022/06/23 02:35:38;;;;;;;;;;;;;;;16.30;44.85;100382.56;4993898;28;97550;-65
2022/06/23 02:38:41;;;;;;;;;;;;;;;16.26;44.91;100378.84;4899838;28;97579;-62
2022/06/23 02:41:33;;;;;;;;;;;;;;;16.23;45.10;100384.09;4912216;28;97408;-65
2022/06/23 02:44:33;;;;;;;;;;;;;;;16.17;45.05;100386.94;4972543;28;98084;-65
2022/06/23 02:47:52;;;;;;;;;;;;;;;16.10;45.27;100378.38;4990546;28;98141;-65
2022/06/23 02:50:45;;;;;;;;;;;;;;;16.03;45.23;100390.78;4978550;28;96951;-61
2022/06/23 02:54:18;;;;;;;;;;;;;;;15.97;45.34;100401.00;4994818;28;98378;-65
2022/06/23 02:57:31;;;;;;;;;;;;;;;15.89;45.58;100407.13;4996122;28;98269;-62
2022/06/23 03:00:56;;;;;;;;;;;;;;;15.83;45.73;100411.88;4981004;28;97444;-67
2022/06/23 03:04:03;;;;;;;;;;;;;;;15.81;45.44;100411.38;5013581;27;97771;-67
2022/06/23 03:07:20;;;;;;;;;;;;;;;15.82;45.87;100412.19;4998523;28;98005;-65
2022/06/23 03:10:37;;;;;;;;;;;;;;;15.80;45.40;100417.09;4996720;28;98342;-62
2022/06/23 03:13:39;;;;;;;;;;;;;;;15.78;45.42;100417.41;4985602;28;99027;-62
2022/06/23 03:16:45;;;;;;;;;;;;;;;15.79;45.73;100410.06;4960045;28;97791;-65
2022/06/23 03:19:52;;;;;;;;;;;;;;;15.83;45.78;100411.06;4958583;28;97580;-65
2022/06/23 03:23:05;;;;;;;;;;;;;;;15.85;45.54;100420.53;4989086;28;98695;-67
2022/06/23 03:25:58;;;;;;;;;;;;;;;15.87;45.81;100412.06;4979571;28;97487;-65
2022/06/23 03:28:50;;;;;;;;;;;;;;;15.87;45.91;100417.50;4980630;28;97353;-67
2022/06/23 03:32:01;;;;;;;;;;;;;;;15.83;45.79;100420.00;4989222;28;97870;-66
2022/06/23 03:35:04;;;;;;;;;;;;;;;15.79;45.97;100426.38;4994933;28;98804;-62
2022/06/23 03:38:16;;;;;;;;;;;;;;;15.77;46.12;100428.59;4976481;28;98038;-61
2022/06/23 03:44:22;;;;;;;;;;;;;;;15.77;46.38;100436.75;4989707;28;98060;-65
2022/06/23 03:47:25;;;;;;;;;;;;;;;15.76;46.14;100435.94;4999020;28;97363;-65
2022/06/23 03:50:58;;;;;;;;;;;;;;;15.78;46.47;100436.44;4998982;28;97677;-62
2022/06/23 03:53:50;;;;;;;;;;;;;;;15.85;46.19;100441.47;4978942;28;97370;-65
2022/06/23 03:56:47;;;;;;;;;;;;;;;15.91;46.33;100442.97;4999253;28;98226;-62
2022/06/23 04:00:22;;;;;;;;;;;;;;;15.98;46.26;100451.53;4957728;28;98310;-62
2022/06/23 04:03:33;;;;;;;;;;;;;;;16.07;46.42;100454.31;4975293;28;98165;-65
2022/06/23 04:06:26;;;;;;;;;;;;;;;16.10;46.49;100459.16;4979811;28;97464;-65
2022/06/23 04:09:39;;;;;;;;;;;;;;;16.11;46.47;100458.03;4989315;28;97558;-65
2022/06/23 04:12:42;;;;;;;;;;;;;;;16.13;46.48;100467.50;4992160;28;99399;-66
2022/06/23 04:15:49;;;;;;;;;;;;;;;16.19;46.49;100470.91;4978151;28;97020;-67
2022/06/23 04:18:52;;;;;;;;;;;;;;;16.23;46.64;100471.94;4990075;28;97700;-66
2022/06/23 04:21:58;;;;;;;;;;;;;;;16.28;47.00;100471.84;4991545;28;98721;-62
2022/06/23 04:24:51;;;;;;;;;;;;;;;16.32;46.89;100472.81;4977920;28;98565;-62
2022/06/23 04:27:54;;;;;;;;;;;;;;;16.38;46.75;100474.31;4968716;28;99010;-66
2022/06/23 04:31:03;;;;;;;;;;;;;;;16.44;46.57;100481.25;4968608;28;97349;-66
2022/06/23 04:33:57;;;;;;;;;;;;;;;16.54;46.57;100484.84;4997524;28;98056;-62
2022/06/23 04:36:51;;;;;;;;;;;;;;;16.71;46.33;100485.03;4998896;28;97916;-66
2022/06/23 04:40:04;;;;;;;;;;;;;;;16.97;46.36;100489.88;4994925;28;97544;-62
2022/06/23 04:43:01;;;;;;;;;;;;;;;17.22;46.09;100483.81;4987424;28;97483;-62
2022/06/23 04:46:41;;;;;;;;;;;;;;;17.46;45.93;100480.75;4990458;28;97401;-62
2022/06/23 04:49:45;;;;;;;;;;;;;;;17.73;45.66;100482.47;4947421;28;97934;-66
2022/06/23 04:52:43;;;;;;;;;;;;;;;17.95;45.67;100497.16;5001156;28;97705;-62
2022/06/23 04:55:45;;;;;;;;;;;;;;;18.11;45.52;100493.69;4956564;28;96888;-61
2022/06/23 04:58:49;;;;;;;;;;;;;;;18.28;45.31;100501.13;4977774;28;98796;-66
2022/06/23 05:01:44;;;;;;;;;;;;;;;18.46;45.17;100507.41;4997127;28;97566;-65
2022/06/23 05:04:50;;;;;;;;;;;;;;;18.63;45.27;100509.34;4978017;28;98107;-66
2022/06/23 05:08:11;;;;;;;;;;;;;;;18.81;45.00;100510.97;4979526;28;97239;-62
2022/06/23 05:11:06;;;;;;;;;;;;;;;19.03;45.08;100510.03;4988491;28;97882;-62
2022/06/23 05:13:59;;;;;;;;;;;;;;;19.21;45.00;100505.31;4997210;28;97507;-62
2022/06/23 05:17:14;;;;;;;;;;;;;;;19.40;44.78;100504.16;4998155;28;98152;-66
2022/06/23 05:20:07;;;;;;;;;;;;;;;19.67;44.61;100503.78;4998598;28;97449;-65
2022/06/23 05:22:59;;;;;;;;;;;;;;;19.92;44.39;100501.28;4988866;28;97929;-61
2022/06/23 05:26:01;;;;;;;;;;;;;;;20.17;44.16;100508.56;4978696;28;97612;-66
2022/06/23 05:29:03;;;;;;;;;;;;;;;20.47;43.81;100508.50;4989617;28;98544;-66
2022/06/23 05:32:06;;;;;;;;;;;;;;;20.77;43.66;100503.81;4990531;28;97262;-62
2022/06/23 05:35:19;;;;;;;;;;;;;;;21.07;43.31;100512.75;4977681;28;97797;-67
2022/06/23 05:38:23;;;;;;;;;;;;;;;21.39;43.12;100513.91;4985379;28;97635;-62
2022/06/23 05:41:24;;;;;;;;;;;;;;;21.75;42.74;100512.38;4967881;28;97516;-62
2022/06/23 05:44:39;;;;;;;;;;;;;;;22.13;42.45;100509.34;4977126;28;97850;-62
2022/06/23 05:47:43;;;;;;;;;;;;;;;22.79;41.78;100508.16;4986571;28;97819;-62
2022/06/23 05:50:37;;;;;;;;;;;;;;;25.73;37.41;100508.25;4975951;28;97651;-62
2022/06/23 05:54:00;;;;;;;;;;;;;;;27.80;35.19;100518.47;4984387;28;97444;-65
2022/06/23 05:57:02;;;;;;;;;;;;;;;29.89;33.18;100530.84;4996660;28;97683;-66
2022/06/23 05:59:55;;;;;;;;;;;;;;;31.44;31.76;100535.59;4971620;28;97596;-62
2022/06/23 06:03:15;;;;;;;;;;;;;;;31.44;32.28;100526.41;4977396;28;98121;-62
2022/06/23 06:06:10;;;;;;;;;;;;;;;31.67;32.51;100534.19;4975749;28;99309;-62
2022/06/23 06:12:06;;;;;;;;;;;;;;;35.61;27.18;100540.91;4957300;28;97472;-66
2022/06/23 06:15:10;;;;;;;;;;;;;;;35.89;27.01;100534.59;4975788;28;98111;-66
2022/06/23 06:18:04;;;;;;;;;;;;;;;35.35;27.44;100529.47;4978011;28;97800;-62
2022/06/23 06:21:26;;;;;;;;;;;;;;;37.21;25.26;100534.94;4976897;28;97684;-63
2022/06/23 06:24:51;;;;;;;;;;;;;;;36.58;26.31;100522.34;4980986;28;97598;-61
2022/06/23 06:27:44;;;;;;;;;;;;;;;38.02;24.35;100517.44;4987531;28;97083;-66
2022/06/23 06:30:39;;;;;;;;;;;;;;;37.52;25.01;100524.72;4995149;28;97580;-61
2022/06/23 06:33:46;;;;;;;;;;;;;;;37.67;24.65;100518.63;4994642;28;97542;-66
2022/06/23 06:36:58;;;;;;;;;;;;;;;37.96;24.18;100519.25;4994524;28;97854;-66
2022/06/23 06:40:14;;;;;;;;;;;;;;;37.44;24.36;100514.19;4977959;28;98276;-61
2022/06/23 06:43:08;;;;;;;;;;;;;;;37.43;24.13;100524.63;4977083;28;97919;-66
2022/06/23 06:45:52;;;;;;;;;;;;;;;37.05;24.63;100519.75;4977638;28;97500;-62
2022/06/23 06:49:08;;;;;;;;;;;;;;;36.76;24.62;100514.22;4990177;28;98197;-62
2022/06/23 06:52:01;;;;;;;;;;;;;;;36.37;24.29;100507.69;4974142;28;97777;-66
2022/06/23 06:55:22;;;;;;;;;;;;;;;36.08;24.27;100515.31;4976054;28;97784;-66
2022/06/23 06:58:41;;;;;;;;;;;;;;;35.84;24.69;100512.72;4984920;28;96940;-66
2022/06/23 07:01:51;;;;;;;;;;;;;;;35.65;25.02;100517.19;4954367;28;97589;-65
2022/06/23 07:05:02;;;;;;;;;;;;;;;35.55;24.78;100523.03;4967421;28;98084;-62
2022/06/23 07:07:57;;;;;;;;;;;;;;;35.52;25.22;100523.91;4977453;28;97292;-66
2022/06/23 07:11:33;;;;;;;;;;;;;;;35.52;24.99;100519.09;4976627;28;96864;-66
2022/06/23 07:14:46;;;;;;;;;;;;;;;35.50;24.60;100527.16;4965705;28;97579;-66
2022/06/23 07:17:39;;;;;;;;;;;;;;;35.59;24.48;100520.94;4979673;28;97996;-68
2022/06/23 07:20:49;;;;;;;;;;;;;;;35.67;24.48;100525.13;4980474;28;98086;-62
2022/06/23 07:23:43;;;;;;;;;;;;;;;35.77;24.55;100523.31;4996050;28;97258;-62
2022/06/23 07:26:46;;;;;;;;;;;;;;;35.67;32.80;100522.34;4995198;28;97613;-65
2022/06/23 07:29:57;;;;;;;;;;;;;;;35.22;36.29;100525.78;4982512;28;98015;-64
2022/06/23 07:33:02;;;;;;;;;;;;;;;34.87;37.94;100530.94;4975342;28;97633;-64
2022/06/23 07:36:26;;;;;;;;;;;;;;;34.69;38.80;100525.69;4982980;28;97403;-63
2022/06/23 07:39:19;;;;;;;;;;;;;;;34.64;37.48;100531.03;4989285;28;98060;-63
2022/06/23 07:42:30;;;;;;;;;;;;;;;34.68;35.04;100535.31;5011179;28;98717;-62
2022/06/23 07:45:24;;;;;;;;;;;;;;;34.86;34.03;100534.16;4999465;28;97399;-62
2022/06/23 07:48:17;;;;;;;;;;;;;;;35.01;33.27;100529.84;4997482;28;97648;-60
2022/06/23 07:51:10;;;;;;;;;;;;;;;35.25;32.04;100538.91;4996208;28;98640;-57
2022/06/23 07:54:03;;;;;;;;;;;;;;;35.60;30.96;100530.91;4959483;28;97533;-57
2022/06/23 07:56:56;;;;;;;;;;;;;;;36.04;29.95;100526.63;4959089;28;98035;-60
2022/06/23 07:59:55;;;;;;;;;;;;;;;36.53;29.04;100529.31;4992354;28;97669;-62
2022/06/23 08:02:48;;;;;;;;;;;;;;;37.07;28.35;100536.97;4991248;28;97986;-58
2022/06/23 08:05:42;;;;;;;;;;;;;;;37.62;26.72;100527.66;4996874;28;97521;-58
2022/06/23 08:08:40;;;;;;;;;;;;;;;38.05;25.58;100527.00;5012185;28;97452;-58
2022/06/23 08:14:37;;;;;;;;;;;;;;;39.17;24.77;100532.94;4970811;28;97595;-58
2022/06/23 08:17:31;;;;;;;;;;;;;;;39.80;23.67;100531.59;4976127;28;98576;-61
2022/06/23 08:20:23;;;;;;;;;;;;;;;40.31;22.88;100527.41;4934604;28;97949;-58
2022/06/23 08:23:16;;;;;;;;;;;;;;;40.84;22.18;100518.56;4928392;28;97979;-62
2022/06/23 08:26:10;;;;;;;;;;;;;;;41.55;22.07;100525.66;4921716;28;99089;-61
2022/06/23 08:29:04;;;;;;;;;;;;;;;42.12;21.32;100522.75;4933122;28;98360;-61
2022/06/23 08:31:57;;;;;;;;;;;;;;;42.69;20.28;100522.56;4948532;28;97991;-61
2022/06/23 08:34:52;;;;;;;;;;;;;;;43.09;20.01;100521.16;4949939;28;97775;-58
2022/06/23 08:37:46;;;;;;;;;;;;;;;43.47;19.22;100510.91;4952211;28;98455;-61
2022/06/23 08:40:39;;;;;;;;;;;;;;;43.79;19.22;100503.34;4959288;28;98568;-59
2022/06/23 08:43:51;;;;;;;;;;;;;;;44.10;19.11;100516.88;4960903;28;98271;-62
2022/06/23 08:46:53;;;;;;;;;;;;;;;44.50;18.58;100510.34;4954512;28;98024;-61
2022/06/23 08:50:07;;;;;;;;;;;;;;;45.08;17.78;100501.00;4940981;28;97764;-61
2022/06/23 08:53:00;;;;;;;;;;;;;;;45.68;16.90;100502.66;4947661;28;99400;-58
2022/06/23 08:56:16;;;;;;;;;;;;;;;46.11;16.72;100498.94;4958808;28;98567;-60
2022/06/23 08:59:39;;;;;;;;;;;;;;;46.73;16.28;100494.88;4961377;28;97960;-58
2022/06/23 09:02:43;;;;;;;;;;;;;;;47.27;16.00;100482.34;4951285;28;97898;-58
2022/06/23 09:06:03;;;;;;;;;;;;;;;47.73;15.71;100478.06;4956400;28;98567;-61
2022/06/23 09:09:35;;;;;;;;;;;;;;;48.22;15.19;100480.38;4958231;28;113367;-61
2022/06/23 09:12:37;;;;;;;;;;;;;;;48.62;14.67;100473.88;4960718;28;98357;-59
2022/06/23 09:15:57;;;;;;;;;;;;;;;48.92;14.73;100470.22;4950394;28;98877;-63
2022/06/23 09:19:10;;;;;;;;;;;;;;;48.97;14.38;100457.94;4960299;28;98481;-61
2022/06/23 09:22:38;;;;;;;;;;;;;;;48.96;14.14;100453.53;4960374;28;98832;-61
2022/06/23 09:26:04;;;;;;;;;;;;;;;48.80;14.45;100443.06;4965444;28;98317;-61
2022/06/23 09:29:32;;;;;;;;;;;;;;;48.24;14.38;100447.16;4952404;28;98251;-62
2022/06/23 09:32:31;;;;;;;;;;;;;;;47.69;14.78;100435.53;4936585;28;98773;-61
2022/06/23 09:35:33;;;;;;;;;;;;;;;47.29;14.58;100433.38;4955908;28;97806;-58
2022/06/23 09:38:26;;;;;;;;;;;;;;;47.15;15.18;100444.53;4940526;28;97766;-59
2022/06/23 09:41:38;;;;;;;;;;;;;;;47.49;15.11;100449.38;4938373;28;100041;-58
2022/06/23 09:45:10;;;;;;;;;;;;;;;48.06;14.75;100448.56;4944899;28;97712;-61
2022/06/23 09:48:22;;;;;;;;;;;;;;;48.82;13.46;100449.03;4976037;28;98227;-58
2022/06/23 09:52:14;;;;;;;;;;;;;;;49.30;12.40;100444.59;4975988;28;98114;-59
2022/06/23 09:55:09;;;;;;;;;;;;;;;49.65;12.71;100446.50;4884220;28;98846;-59
2022/06/23 09:58:22;;;;;;;;;;;;;;;50.18;12.53;100431.66;4877576;28;98993;-62
2022/06/23 10:01:18;;;;;;;;;;;;;;;50.72;11.88;100439.09;4920646;28;98669;-59
2022/06/23 10:04:57;;;;;;;;;;;;;;;50.83;11.58;100427.41;4923221;28;97994;-60
2022/06/23 10:08:07;;;;;;;;;;;;;;;50.96;11.00;100421.69;4951887;28;98392;-63
2022/06/23 10:11:37;;;;;;;;;;;;;;;51.41;11.85;100423.66;4925607;28;98611;-60
2022/06/23 10:14:57;;;;;;;;;;;;;;;51.86;10.85;100421.88;4950483;28;97863;-60
2022/06/23 10:18:01;;;;;;;;;;;;;;;51.91;11.14;100410.28;4959081;28;97933;-60
2022/06/23 10:21:06;;;;;;;;;;;;;;;52.02;11.10;100414.97;4973376;28;98306;-60
2022/06/23 10:24:19;;;;;;;;;;;;;;;52.28;10.87;100399.72;4959944;28;98143;-60
2022/06/23 10:27:39;;;;;;;;;;;;;;;52.68;11.37;100399.47;4917413;28;98308;-60
2022/06/23 10:30:53;;;;;;;;;;;;;;;53.11;10.69;100395.13;4938758;28;98225;-63
2022/06/23 10:34:13;;;;;;;;;;;;;;;53.17;10.41;100381.31;4937584;28;97820;-60
2022/06/23 10:37:30;;;;;;;;;;;;;;;53.25;11.34;100390.78;4919865;28;98613;-60
2022/06/23 10:41:10;;;;;;;;;;;;;;;53.46;11.25;100387.78;4916276;28;98275;-63
2022/06/23 10:44:20;;;;;;;;;;;;;;;53.68;10.62;100386.31;4962759;28;98144;-63
2022/06/23 10:47:26;;;;;;;;;;;;;;;53.86;10.49;100375.78;4955700;28;98774;-63
2022/06/23 10:50:54;;;;;;;;;;;;;;;53.95;10.90;100375.22;4918099;28;98475;-63
2022/06/23 10:54:14;;;;;;;;;;;;;;;54.23;10.49;100376.41;4935185;28;98029;-63
2022/06/23 10:57:20;;;;;;;;;;;;;;;54.34;10.56;100373.13;4958185;28;97944;-60
2022/06/23 11:00:23;;;;;;;;;;;;;;;54.38;10.06;100376.41;4919636;28;98296;-63
2022/06/23 11:03:42;;;;;;;;;;;;;;;54.25;10.16;100367.97;4928647;28;98128;-60
2022/06/23 11:07:01;;;;;;;;;;;;;;;54.22;10.07;100363.34;4975320;28;98063;-63
2022/06/23 11:10:27;;;;;;;;;;;;;;;54.10;10.24;100354.31;4926906;28;98022;-59
2022/06/23 11:13:50;;;;;;;;;;;;;;;53.79;9.91;100350.63;4940140;28;98171;-59
2022/06/23 11:16:43;;;;;;;;;;;;;;;53.67;10.10;100347.34;4957628;28;99788;-63
2022/06/23 11:19:53;;;;;;;;;;;;;;;53.60;10.47;100334.47;4962476;28;97714;-59
2022/06/23 11:23:16;;;;;;;;;;;;;;;53.60;10.63;100330.84;4964690;28;97602;-59
2022/06/23 11:26:31;;;;;;;;;;;;;;;53.58;10.79;100331.41;4958561;28;99027;-63
2022/06/23 11:30:07;;;;;;;;;;;;;;;53.14;10.14;100336.41;4947635;28;98315;-59
2022/06/23 11:33:27;;;;;;;;;;;;;;;52.54;10.62;100329.78;4916241;28;98074;-60
2022/06/23 11:36:32;;;;;;;;;;;;;;;52.23;10.81;100332.44;4951379;28;98325;-59
2022/06/23 11:40:08;;;;;;;;;;;;;;;51.86;10.66;100327.13;4939380;28;98914;-59
2022/06/23 11:43:14;;;;;;;;;;;;;;;51.43;11.24;100323.44;4947553;28;98498;-60
2022/06/23 11:46:33;;;;;;;;;;;;;;;50.99;10.98;100320.22;4974886;28;98108;-60
2022/06/23 11:49:45;;;;;;;;;;;;;;;50.46;11.35;100308.75;4954354;28;97972;-63
2022/06/23 11:53:05;;;;;;;;;;;;;;;49.83;11.47;100304.66;4941748;28;98566;-63
2022/06/23 11:56:35;;;;;;;;;;;;;;;49.37;12.03;100304.56;4942347;28;98489;-63
2022/06/23 11:59:59;;;;;;;;;;;;;;;48.96;11.69;100292.66;4945702;28;98186;-63
2022/06/23 12:03:02;;;;;;;;;;;;;;;48.63;11.93;100291.75;4943794;28;97729;-63
2022/06/23 12:06:31;;;;;;;;;;;;;;;48.50;11.96;100297.34;4958974;28;98613;-63
2022/06/23 12:09:47;;;;;;;;;;;;;;;48.47;11.57;100284.16;4938391;28;98642;-59
2022/06/23 12:12:40;;;;;;;;;;;;;;;48.35;11.81;100292.81;4954635;28;98060;-63
2022/06/23 12:15:33;;;;;;;;;;;;;;;48.36;11.95;100294.34;4941967;28;97609;-60
2022/06/23 12:26:25;;;;;;;;;;;;;;;48.11;12.19;100284.25;4936572;28;98021;-59
2022/06/23 12:29:12;;;;;;;;;;;;;;;48.02;12.04;100288.16;4919042;28;112666;-62
2022/06/23 12:32:10;;;;;;;;;;;;;;;47.91;12.04;100276.84;4973551;28;113658;-60
2022/06/23 12:34:45;;;;;;;;;;;;;;;47.87;12.48;100274.31;4952757;28;127733;-63
2022/06/23 12:37:26;;;;;;;;;;;;;;;47.69;12.27;100272.88;4939634;28;97836;-64
2022/06/23 12:40:02;;;;;;;;;;;;;;;47.57;12.27;100270.63;4939452;28;98603;-64
2022/06/23 12:42:33;;;;;;;;;;;;;;;47.49;12.33;100279.00;4937343;28;98697;-59
2022/06/23 12:45:21;;;;;;;;;;;;;;;47.40;12.44;100265.03;4954641;28;98402;-59
2022/06/23 12:48:07;;;;;;;;;;;;;;;47.35;12.94;100266.63;4941296;28;97831;-62
2022/06/23 12:51:05;;;;;;;;;;;;;;;47.15;12.55;100261.28;4921290;28;116322;-60
2022/06/23 12:53:47;;;;;;;;;;;;;;;46.85;12.21;100261.16;4937648;28;100008;-62
2022/06/23 12:56:38;;;;;;;;;;;;;;;46.60;12.73;100255.31;4954721;28;116797;-59
2022/06/23 12:59:22;;;;;;;;;;;;;;;46.45;12.94;100249.88;4939339;28;97936;-59
2022/06/23 13:01:50;;;;;;;;;;;;;;;46.33;13.07;100251.22;4937639;28;99071;-62
2022/06/23 13:04:36;;;;;;;;;;;;;;;46.20;12.91;100251.00;4938036;28;102841;-59
2022/06/23 13:07:23;;;;;;;;;;;;;;;46.06;13.08;100254.88;4938331;28;124153;-63
2022/06/23 13:10:10;;;;;;;;;;;;;;;45.90;13.01;100242.22;4938580;28;117350;-62
2022/06/23 13:12:40;;;;;;;;;;;;;;;45.68;13.02;100248.69;4937750;28;98302;-62
2022/06/23 13:15:21;;;;;;;;;;;;;;;45.40;13.31;100246.56;4937015;28;98479;-62
2022/06/23 13:18:20;;;;;;;;;;;;;;;45.12;13.15;100232.31;4922713;28;117607;-63
2022/06/23 13:21:14;;;;;;;;;;;;;;;44.81;13.16;100231.16;4909733;28;97968;-59
2022/06/23 13:24:01;;;;;;;;;;;;;;;44.54;13.57;100231.78;4930018;28;99272;-60
2022/06/23 13:26:36;;;;;;;;;;;;;;;44.33;13.84;100234.78;4936410;28;98836;-63
2022/06/23 13:29:14;;;;;;;;;;;;;;;44.07;13.70;100222.72;4929909;28;98782;-63
2022/06/23 13:31:49;;;;;;;;;;;;;;;43.75;13.87;100228.38;4937506;28;98095;-63
2022/06/23 13:34:36;;;;;;;;;;;;;;;43.48;13.96;100218.34;4939274;28;98385;-60
2022/06/23 13:37:21;;;;;;;;;;;;;;;43.19;14.51;100216.47;4931844;28;98524;-63
2022/06/23 13:40:05;;;;;;;;;;;;;;;42.82;14.22;100219.16;4915167;28;97964;-64
2022/06/23 13:42:35;;;;;;;;;;;;;;;42.28;14.30;100196.81;4936743;28;98164;-60
2022/06/23 13:45:29;;;;;;;;;;;;;;;42.01;14.65;100211.28;4935038;28;121412;-63
2022/06/23 13:47:59;;;;;;;;;;;;;;;41.66;14.84;100207.16;4939845;28;98079;-59
2022/06/23 13:50:27;;;;;;;;;;;;;;;41.25;15.23;100208.94;4936960;28;111168;-64
2022/06/23 13:53:07;;;;;;;;;;;;;;;40.91;15.33;100207.50;4936454;28;98036;-59
2022/06/23 13:55:53;;;;;;;;;;;;;;;40.49;15.55;100206.38;4935715;28;98560;-59
2022/06/23 13:58:34;;;;;;;;;;;;;;;40.07;15.59;100200.78;4944903;28;120612;-59
2022/06/23 14:01:09;;;;;;;;;;;;;;;39.67;15.69;100195.44;4951888;28;126975;-62
2022/06/23 14:04:02;;;;;;;;;;;;;;;39.31;16.02;100191.44;4936207;28;109089;-63
2022/06/23 14:06:28;;;;;;;;;;;;;;;38.99;16.16;100188.00;4934441;28;126539;-59
2022/06/23 14:09:19;;;;;;;;;;;;;;;38.80;16.65;100194.88;4939500;28;102780;-59
2022/06/23 14:11:52;;;;;;;;;;;;;;;38.59;16.90;100184.50;4938499;28;102603;-63
2022/06/23 14:14:23;;;;;;;;;;;;;;;38.43;16.92;100186.34;4938402;28;99601;-59
2022/06/23 14:16:53;;;;;;;;;;;;;;;38.30;16.96;100175.19;4939232;28;98582;-62
2022/06/23 14:19:36;;;;;;;;;;;;;;;38.20;17.05;100176.44;4938340;28;98414;-59
2022/06/23 14:22:20;;;;;;;;;;;;;;;38.04;16.82;100171.88;4936856;28;101211;-62
2022/06/23 14:24:51;;;;;;;;;;;;;;;37.87;17.06;100178.16;4936575;28;98056;-59
2022/06/23 14:27:40;;;;;;;;;;;;;;;37.70;17.23;100172.78;4937657;28;98526;-62
2022/06/23 14:30:22;;;;;;;;;;;;;;;37.53;16.74;100171.44;4919991;28;98079;-62
2022/06/23 14:32:59;;;;;;;;;;;;;;;37.37;16.88;100175.22;4913160;28;126906;-59
2022/06/23 14:36:10;;;;;;;;;;;;;;;37.17;16.68;100171.97;4935162;28;122365;-62
2022/06/23 14:38:48;;;;;;;;;;;;;;;37.01;16.97;100170.91;4921715;28;98232;-62
2022/06/23 14:41:23;;;;;;;;;;;;;;;36.90;17.36;100158.47;4939145;28;111388;-62
2022/06/23 14:44:02;;;;;;;;;;;;;;;36.77;17.54;100164.91;4939885;28;97909;-61
2022/06/23 14:46:39;;;;;;;;;;;;;;;36.65;17.70;100164.97;4940252;28;97937;-62
2022/06/23 14:49:18;;;;;;;;;;;;;;;36.46;18.22;100153.56;4941496;28;115971;-64
2022/06/23 14:51:56;;;;;;;;;;;;;;;36.29;18.51;100152.13;4944121;28;98886;-62
2022/06/23 14:54:45;;;;;;;;;;;;;;;36.08;18.73;100151.59;4933747;28;124876;-62
2022/06/23 14:57:40;;;;;;;;;;;;;;;35.81;18.71;100157.63;4954281;28;97986;-59
2022/06/23 15:00:25;;;;;;;;;;;;;;;35.59;18.60;100149.06;4918862;28;126510;-59
2022/06/23 15:03:11;;;;;;;;;;;;;;;35.42;18.55;100144.78;4925460;28;98568;-63
2022/06/23 15:05:37;;;;;;;;;;;;;;;35.25;18.70;100158.03;4946813;28;98086;-63
2022/06/23 15:08:27;;;;;;;;;;;;;;;35.08;17.95;100146.13;4944939;28;98102;-59
2022/06/23 15:10:58;;;;;;;;;;;;;;;34.91;18.07;100153.00;4942554;28;127514;-59
2022/06/23 15:13:31;;;;;;;;;;;;;;;34.82;18.38;100147.22;4930390;28;98394;-62
2022/06/23 15:16:04;;;;;;;;;;;;;;;34.73;18.57;100145.06;4927428;28;122367;-63
2022/06/23 15:19:04;;;;;;;;;;;;;;;34.65;18.25;100144.47;4949418;28;107939;-59
2022/06/23 15:24:55;;;;;;;;;;;;;;;34.50;18.83;100142.47;4941222;28;98179;-59
2022/06/23 15:27:59;;;;;;;;;;;;;;;34.43;18.49;100140.66;4950973;28;97860;-59
2022/06/23 15:30:45;;;;;;;;;;;;;;;34.36;18.73;100141.59;4931714;28;118902;-59
2022/06/23 15:33:27;;;;;;;;;;;;;;;34.25;18.88;100146.66;4945630;28;122453;-59
2022/06/23 15:36:30;;;;;;;;;;;;;;;34.15;18.43;100144.91;4932140;28;98791;-59
2022/06/23 15:39:01;;;;;;;;;;;;;;;34.00;18.80;100136.09;4945228;28;97945;-63
2022/06/23 15:41:55;;;;;;;;;;;;;;;33.81;18.64;100134.13;4946269;28;98460;-63
2022/06/23 15:44:57;;;;;;;;;;;;;;;33.68;18.83;100134.00;4941732;28;98786;-62
2022/06/23 15:47:37;;;;;;;;;;;;;;;33.47;18.76;100135.25;4940470;28;98748;-63
2022/06/23 15:50:24;;;;;;;;;;;;;;;33.40;19.05;100136.16;4945117;28;124039;-62
2022/06/23 15:53:22;;;;;;;;;;;;;;;33.28;18.90;100130.44;4944727;28;119433;-59
2022/06/23 15:56:06;;;;;;;;;;;;;;;33.20;18.95;100138.19;4944908;28;98649;-59